sensor_id;sensor_type;location;lat;lon;timestamp;P1;durP1;ratioP1;P2;durP2;ratioP2
71814;SDS011;59659;41.520;23.794;2023-07-16T00:53:52;12.38;;;8.57;;
71814;SDS011;59659;41.520;23.794;2023-07-16T00:55:05;13.57;;;8.77;;
71814;SDS011;59659;41.520;23.794;2023-07-16T00:56:17;11.57;;;7.77;;
71814;SDS011;59659;41.520;23.794;2023-07-16T00:57:31;12.67;;;7.10;;
71814;SDS011;59659;41.520;23.794;2023-07-16T00:58:44;14.90;;;8.70;;
71814;SDS011;59659;41.520;23.794;2023-07-16T00:59:55;15.10;;;8.27;;
71814;SDS011;59659;41.520;23.794;2023-07-16T01:01:07;13.77;;;8.33;;
71814;SDS011;59659;41.520;23.794;2023-07-16T01:02:19;16.10;;;8.63;;
71814;SDS011;59659;41.520;23.794;2023-07-16T01:03:30;19.87;;;8.27;;
71814;SDS011;59659;41.520;23.794;2023-07-16T01:04:42;16.77;;;8.53;;
71814;SDS011;59659;41.520;23.794;2023-07-16T01:07:14;13.63;;;7.97;;
71814;SDS011;59659;41.520;23.794;2023-07-16T01:08:30;15.47;;;8.20;;
71814;SDS011;59659;41.520;23.794;2023-07-16T01:09:43;13.33;;;7.87;;
71814;SDS011;59659;41.520;23.794;2023-07-16T01:24:20;14.40;;;8.73;;
71814;SDS011;59659;41.520;23.794;2023-07-16T01:30:07;12.47;;;9.00;;
71814;SDS011;59659;41.520;23.794;2023-07-16T01:31:20;15.03;;;8.87;;
71814;SDS011;59659;41.520;23.794;2023-07-16T01:32:33;13.70;;;8.83;;
71814;SDS011;59659;41.520;23.794;2023-07-16T01:33:45;13.80;;;7.93;;
71814;SDS011;59659;41.520;23.794;2023-07-16T01:34:57;16.10;;;8.40;;
71814;SDS011;59659;41.520;23.794;2023-07-16T01:36:09;13.47;;;8.30;;
71814;SDS011;59659;41.520;23.794;2023-07-16T01:37:21;15.67;;;8.70;;
71814;SDS011;59659;41.520;23.794;2023-07-16T01:38:33;13.83;;;8.77;;
71814;SDS011;59659;41.520;23.794;2023-07-16T01:39:45;14.27;;;8.87;;
71814;SDS011;59659;41.520;23.794;2023-07-16T01:40:56;15.07;;;8.67;;
71814;SDS011;59659;41.520;23.794;2023-07-16T01:42:08;24.50;;;9.27;;
71814;SDS011;59659;41.520;23.794;2023-07-16T01:43:20;18.47;;;8.70;;
71814;SDS011;59659;41.520;23.794;2023-07-16T01:44:31;14.17;;;8.23;;
71814;SDS011;59659;41.520;23.794;2023-07-16T01:45:43;13.53;;;8.50;;
71814;SDS011;59659;41.520;23.794;2023-07-16T01:47:39;12.83;;;8.17;;
71814;SDS011;59659;41.520;23.794;2023-07-16T01:49:41;12.53;;;9.10;;
71814;SDS011;59659;41.520;23.794;2023-07-16T01:50:54;15.17;;;9.33;;
71814;SDS011;59659;41.520;23.794;2023-07-16T01:52:06;13.27;;;8.23;;
71814;SDS011;59659;41.520;23.794;2023-07-16T01:53:17;15.10;;;8.50;;
71814;SDS011;59659;41.520;23.794;2023-07-16T01:54:29;15.37;;;8.43;;
71814;SDS011;59659;41.520;23.794;2023-07-16T01:55:41;14.03;;;8.20;;
71814;SDS011;59659;41.520;23.794;2023-07-16T01:56:52;14.63;;;9.00;;
71814;SDS011;59659;41.520;23.794;2023-07-16T01:58:04;15.67;;;9.33;;
71814;SDS011;59659;41.520;23.794;2023-07-16T01:59:16;13.57;;;8.87;;
71814;SDS011;59659;41.520;23.794;2023-07-16T02:00:28;15.10;;;8.27;;
71814;SDS011;59659;41.520;23.794;2023-07-16T02:01:40;14.00;;;8.77;;
71814;SDS011;59659;41.520;23.794;2023-07-16T02:02:51;17.20;;;8.63;;
71814;SDS011;59659;41.520;23.794;2023-07-16T02:04:03;14.90;;;9.27;;
71814;SDS011;59659;41.520;23.794;2023-07-16T02:05:15;13.77;;;9.00;;
71814;SDS011;59659;41.520;23.794;2023-07-16T02:06:26;13.00;;;8.57;;
71814;SDS011;59659;41.520;23.794;2023-07-16T02:07:38;17.17;;;8.60;;
71814;SDS011;59659;41.520;23.794;2023-07-16T02:08:49;19.33;;;9.00;;
71814;SDS011;59659;41.520;23.794;2023-07-16T02:10:01;15.83;;;8.13;;
71814;SDS011;59659;41.520;23.794;2023-07-16T02:11:13;16.20;;;9.60;;
71814;SDS011;59659;41.520;23.794;2023-07-16T02:12:25;17.23;;;9.63;;
71814;SDS011;59659;41.520;23.794;2023-07-16T02:13:37;15.23;;;8.47;;
71814;SDS011;59659;41.520;23.794;2023-07-16T02:14:48;17.53;;;8.77;;
71814;SDS011;59659;41.520;23.794;2023-07-16T02:16:00;12.57;;;8.67;;
71814;SDS011;59659;41.520;23.794;2023-07-16T02:17:11;17.23;;;8.27;;
71814;SDS011;59659;41.520;23.794;2023-07-16T02:18:23;14.30;;;8.90;;
71814;SDS011;59659;41.520;23.794;2023-07-16T02:19:34;15.07;;;9.50;;
71814;SDS011;59659;41.520;23.794;2023-07-16T02:20:46;16.90;;;9.00;;
71814;SDS011;59659;41.520;23.794;2023-07-16T02:21:57;13.47;;;8.70;;
71814;SDS011;59659;41.520;23.794;2023-07-16T02:23:09;14.27;;;8.70;;
71814;SDS011;59659;41.520;23.794;2023-07-16T02:24:21;14.07;;;9.00;;
71814;SDS011;59659;41.520;23.794;2023-07-16T02:25:32;14.00;;;8.03;;
71814;SDS011;59659;41.520;23.794;2023-07-16T02:26:44;16.33;;;9.60;;
71814;SDS011;59659;41.520;23.794;2023-07-16T02:27:56;12.53;;;7.83;;
71814;SDS011;59659;41.520;23.794;2023-07-16T02:29:07;14.50;;;9.27;;
71814;SDS011;59659;41.520;23.794;2023-07-16T02:30:20;15.17;;;8.77;;
71814;SDS011;59659;41.520;23.794;2023-07-16T02:31:31;14.83;;;8.60;;
71814;SDS011;59659;41.520;23.794;2023-07-16T02:32:43;17.40;;;9.27;;
71814;SDS011;59659;41.520;23.794;2023-07-16T02:33:55;16.17;;;9.67;;
71814;SDS011;59659;41.520;23.794;2023-07-16T02:35:07;13.50;;;8.60;;
71814;SDS011;59659;41.520;23.794;2023-07-16T02:36:18;16.33;;;9.40;;
71814;SDS011;59659;41.520;23.794;2023-07-16T02:37:30;13.17;;;8.80;;
71814;SDS011;59659;41.520;23.794;2023-07-16T02:38:42;13.87;;;9.13;;
71814;SDS011;59659;41.520;23.794;2023-07-16T02:39:53;16.70;;;9.47;;
71814;SDS011;59659;41.520;23.794;2023-07-16T02:41:05;12.67;;;9.00;;
71814;SDS011;59659;41.520;23.794;2023-07-16T02:42:16;12.90;;;8.30;;
71814;SDS011;59659;41.520;23.794;2023-07-16T02:43:28;17.67;;;8.90;;
71814;SDS011;59659;41.520;23.794;2023-07-16T02:44:39;13.10;;;9.73;;
71814;SDS011;59659;41.520;23.794;2023-07-16T02:45:56;12.33;;;7.47;;
71814;SDS011;59659;41.520;23.794;2023-07-16T02:47:07;13.93;;;7.73;;
71814;SDS011;59659;41.520;23.794;2023-07-16T02:48:19;11.57;;;7.50;;
71814;SDS011;59659;41.520;23.794;2023-07-16T02:49:31;13.70;;;7.70;;
71814;SDS011;59659;41.520;23.794;2023-07-16T02:50:42;11.73;;;7.60;;
71814;SDS011;59659;41.520;23.794;2023-07-16T02:51:54;18.77;;;9.00;;
71814;SDS011;59659;41.520;23.794;2023-07-16T02:53:06;22.90;;;9.23;;
71814;SDS011;59659;41.520;23.794;2023-07-16T02:54:18;12.70;;;7.60;;
71814;SDS011;59659;41.520;23.794;2023-07-16T02:55:29;15.57;;;7.87;;
71814;SDS011;59659;41.520;23.794;2023-07-16T02:56:41;16.73;;;8.43;;
71814;SDS011;59659;41.520;23.794;2023-07-16T02:57:52;12.40;;;8.70;;
71814;SDS011;59659;41.520;23.794;2023-07-16T02:59:04;16.70;;;9.40;;
71814;SDS011;59659;41.520;23.794;2023-07-16T03:00:15;13.27;;;8.10;;
71814;SDS011;59659;41.520;23.794;2023-07-16T03:01:27;15.50;;;8.93;;
71814;SDS011;59659;41.520;23.794;2023-07-16T03:02:38;16.37;;;9.07;;
71814;SDS011;59659;41.520;23.794;2023-07-16T03:03:50;15.17;;;8.77;;
71814;SDS011;59659;41.520;23.794;2023-07-16T03:05:02;21.13;;;8.53;;
71814;SDS011;59659;41.520;23.794;2023-07-16T03:06:14;14.03;;;8.43;;
71814;SDS011;59659;41.520;23.794;2023-07-16T03:07:29;17.33;;;10.03;;
71814;SDS011;59659;41.520;23.794;2023-07-16T03:08:41;14.50;;;9.00;;
71814;SDS011;59659;41.520;23.794;2023-07-16T03:09:52;18.07;;;8.90;;
71814;SDS011;59659;41.520;23.794;2023-07-16T03:11:04;12.87;;;8.07;;
71814;SDS011;59659;41.520;23.794;2023-07-16T03:12:15;16.43;;;9.30;;
71814;SDS011;59659;41.520;23.794;2023-07-16T03:13:27;14.27;;;8.10;;
71814;SDS011;59659;41.520;23.794;2023-07-16T03:14:38;14.43;;;9.30;;
71814;SDS011;59659;41.520;23.794;2023-07-16T03:15:50;14.90;;;8.57;;
71814;SDS011;59659;41.520;23.794;2023-07-16T03:17:01;16.87;;;9.00;;
71814;SDS011;59659;41.520;23.794;2023-07-16T03:18:15;14.30;;;8.83;;
71814;SDS011;59659;41.520;23.794;2023-07-16T03:19:27;15.03;;;7.83;;
71814;SDS011;59659;41.520;23.794;2023-07-16T03:20:38;16.93;;;8.70;;
71814;SDS011;59659;41.520;23.794;2023-07-16T03:21:50;13.33;;;8.20;;
71814;SDS011;59659;41.520;23.794;2023-07-16T03:23:01;14.63;;;8.83;;
71814;SDS011;59659;41.520;23.794;2023-07-16T03:24:13;18.93;;;8.50;;
71814;SDS011;59659;41.520;23.794;2023-07-16T03:25:24;12.63;;;8.63;;
71814;SDS011;59659;41.520;23.794;2023-07-16T03:26:36;13.63;;;8.70;;
71814;SDS011;59659;41.520;23.794;2023-07-16T03:27:48;15.47;;;8.90;;
71814;SDS011;59659;41.520;23.794;2023-07-16T03:28:59;15.50;;;8.20;;
71814;SDS011;59659;41.520;23.794;2023-07-16T03:30:11;16.93;;;9.03;;
71814;SDS011;59659;41.520;23.794;2023-07-16T03:31:22;13.33;;;7.80;;
71814;SDS011;59659;41.520;23.794;2023-07-16T03:32:34;13.03;;;7.67;;
71814;SDS011;59659;41.520;23.794;2023-07-16T03:34:01;14.13;;;8.07;;
71814;SDS011;59659;41.520;23.794;2023-07-16T03:35:13;14.37;;;9.20;;
71814;SDS011;59659;41.520;23.794;2023-07-16T03:36:25;14.77;;;8.40;;
71814;SDS011;59659;41.520;23.794;2023-07-16T03:37:36;12.67;;;8.17;;
71814;SDS011;59659;41.520;23.794;2023-07-16T03:38:48;14.50;;;8.20;;
71814;SDS011;59659;41.520;23.794;2023-07-16T03:40:11;12.93;;;9.20;;
71814;SDS011;59659;41.520;23.794;2023-07-16T03:41:23;14.27;;;8.57;;
71814;SDS011;59659;41.520;23.794;2023-07-16T03:42:35;11.50;;;8.00;;
71814;SDS011;59659;41.520;23.794;2023-07-16T03:43:46;13.87;;;8.73;;
71814;SDS011;59659;41.520;23.794;2023-07-16T03:44:58;15.80;;;8.07;;
71814;SDS011;59659;41.520;23.794;2023-07-16T03:46:10;12.70;;;7.90;;
71814;SDS011;59659;41.520;23.794;2023-07-16T03:47:21;14.00;;;8.20;;
71814;SDS011;59659;41.520;23.794;2023-07-16T03:48:33;15.07;;;8.80;;
71814;SDS011;59659;41.520;23.794;2023-07-16T03:49:45;14.37;;;9.07;;
71814;SDS011;59659;41.520;23.794;2023-07-16T03:50:56;15.40;;;8.07;;
71814;SDS011;59659;41.520;23.794;2023-07-16T03:52:08;12.93;;;8.40;;
71814;SDS011;59659;41.520;23.794;2023-07-16T03:53:19;13.30;;;8.40;;
71814;SDS011;59659;41.520;23.794;2023-07-16T03:54:31;15.00;;;8.47;;
71814;SDS011;59659;41.520;23.794;2023-07-16T03:55:43;13.27;;;7.90;;
71814;SDS011;59659;41.520;23.794;2023-07-16T03:56:54;13.47;;;8.27;;
71814;SDS011;59659;41.520;23.794;2023-07-16T03:58:06;16.30;;;8.93;;
71814;SDS011;59659;41.520;23.794;2023-07-16T03:59:17;15.43;;;8.67;;
71814;SDS011;59659;41.520;23.794;2023-07-16T04:00:29;14.57;;;8.73;;
71814;SDS011;59659;41.520;23.794;2023-07-16T04:01:40;17.00;;;8.47;;
71814;SDS011;59659;41.520;23.794;2023-07-16T04:02:52;16.70;;;8.63;;
71814;SDS011;59659;41.520;23.794;2023-07-16T04:04:04;16.20;;;8.73;;
71814;SDS011;59659;41.520;23.794;2023-07-16T04:05:15;15.80;;;7.90;;
71814;SDS011;59659;41.520;23.794;2023-07-16T04:06:27;11.13;;;8.17;;
71814;SDS011;59659;41.520;23.794;2023-07-16T04:07:39;14.27;;;9.23;;
71814;SDS011;59659;41.520;23.794;2023-07-16T04:08:50;14.60;;;9.40;;
71814;SDS011;59659;41.520;23.794;2023-07-16T04:10:02;14.23;;;9.07;;
71814;SDS011;59659;41.520;23.794;2023-07-16T04:11:13;20.30;;;9.20;;
71814;SDS011;59659;41.520;23.794;2023-07-16T04:12:25;16.40;;;9.20;;
71814;SDS011;59659;41.520;23.794;2023-07-16T04:13:36;16.57;;;9.90;;
71814;SDS011;59659;41.520;23.794;2023-07-16T04:14:48;17.63;;;9.03;;
71814;SDS011;59659;41.520;23.794;2023-07-16T04:15:59;14.43;;;10.10;;
71814;SDS011;59659;41.520;23.794;2023-07-16T04:17:11;14.77;;;9.63;;
71814;SDS011;59659;41.520;23.794;2023-07-16T04:18:23;20.63;;;9.30;;
71814;SDS011;59659;41.520;23.794;2023-07-16T04:19:35;12.70;;;8.87;;
71814;SDS011;59659;41.520;23.794;2023-07-16T04:20:47;17.43;;;9.23;;
71814;SDS011;59659;41.520;23.794;2023-07-16T04:21:58;15.03;;;9.47;;
71814;SDS011;59659;41.520;23.794;2023-07-16T04:23:10;21.50;;;11.00;;
71814;SDS011;59659;41.520;23.794;2023-07-16T04:24:21;16.40;;;9.43;;
71814;SDS011;59659;41.520;23.794;2023-07-16T04:25:33;16.97;;;8.63;;
71814;SDS011;59659;41.520;23.794;2023-07-16T04:26:44;12.87;;;8.97;;
71814;SDS011;59659;41.520;23.794;2023-07-16T04:27:56;13.83;;;9.20;;
71814;SDS011;59659;41.520;23.794;2023-07-16T04:29:07;18.53;;;8.83;;
71814;SDS011;59659;41.520;23.794;2023-07-16T04:30:19;18.80;;;10.13;;
71814;SDS011;59659;41.520;23.794;2023-07-16T04:31:31;15.97;;;10.13;;
71814;SDS011;59659;41.520;23.794;2023-07-16T04:32:43;19.30;;;10.67;;
71814;SDS011;59659;41.520;23.794;2023-07-16T04:33:54;16.23;;;10.70;;
71814;SDS011;59659;41.520;23.794;2023-07-16T04:35:06;16.63;;;10.00;;
71814;SDS011;59659;41.520;23.794;2023-07-16T04:36:18;25.77;;;10.20;;
71814;SDS011;59659;41.520;23.794;2023-07-16T04:37:29;17.33;;;9.27;;
71814;SDS011;59659;41.520;23.794;2023-07-16T04:38:41;17.73;;;9.70;;
71814;SDS011;59659;41.520;23.794;2023-07-16T04:39:53;18.33;;;10.00;;
71814;SDS011;59659;41.520;23.794;2023-07-16T04:41:04;18.67;;;10.37;;
71814;SDS011;59659;41.520;23.794;2023-07-16T04:42:16;20.10;;;11.10;;
71814;SDS011;59659;41.520;23.794;2023-07-16T04:43:28;16.90;;;10.17;;
71814;SDS011;59659;41.520;23.794;2023-07-16T04:44:39;15.93;;;10.63;;
71814;SDS011;59659;41.520;23.794;2023-07-16T04:45:51;18.40;;;10.13;;
71814;SDS011;59659;41.520;23.794;2023-07-16T04:47:02;22.83;;;10.63;;
71814;SDS011;59659;41.520;23.794;2023-07-16T04:48:14;16.47;;;10.93;;
71814;SDS011;59659;41.520;23.794;2023-07-16T04:49:26;18.03;;;11.03;;
71814;SDS011;59659;41.520;23.794;2023-07-16T04:50:38;19.53;;;11.77;;
71814;SDS011;59659;41.520;23.794;2023-07-16T04:51:49;18.20;;;11.33;;
71814;SDS011;59659;41.520;23.794;2023-07-16T04:53:01;21.83;;;11.00;;
71814;SDS011;59659;41.520;23.794;2023-07-16T04:54:12;16.03;;;11.07;;
71814;SDS011;59659;41.520;23.794;2023-07-16T04:55:24;15.83;;;10.57;;
71814;SDS011;59659;41.520;23.794;2023-07-16T04:56:35;19.80;;;10.93;;
71814;SDS011;59659;41.520;23.794;2023-07-16T04:57:47;17.03;;;10.13;;
71814;SDS011;59659;41.520;23.794;2023-07-16T04:58:59;18.67;;;11.70;;
71814;SDS011;59659;41.520;23.794;2023-07-16T05:00:10;20.70;;;11.30;;
71814;SDS011;59659;41.520;23.794;2023-07-16T05:01:22;17.83;;;10.40;;
71814;SDS011;59659;41.520;23.794;2023-07-16T05:02:34;15.73;;;10.40;;
71814;SDS011;59659;41.520;23.794;2023-07-16T05:03:45;20.63;;;10.70;;
71814;SDS011;59659;41.520;23.794;2023-07-16T05:04:57;17.77;;;11.17;;
71814;SDS011;59659;41.520;23.794;2023-07-16T05:06:09;21.80;;;10.97;;
71814;SDS011;59659;41.520;23.794;2023-07-16T05:07:20;19.13;;;10.90;;
71814;SDS011;59659;41.520;23.794;2023-07-16T05:08:32;19.30;;;11.47;;
71814;SDS011;59659;41.520;23.794;2023-07-16T05:09:43;18.23;;;11.37;;
71814;SDS011;59659;41.520;23.794;2023-07-16T05:10:55;17.80;;;12.10;;
71814;SDS011;59659;41.520;23.794;2023-07-16T05:12:07;19.13;;;11.43;;
71814;SDS011;59659;41.520;23.794;2023-07-16T05:13:18;21.67;;;10.93;;
71814;SDS011;59659;41.520;23.794;2023-07-16T05:14:30;18.43;;;9.83;;
71814;SDS011;59659;41.520;23.794;2023-07-16T05:15:43;19.27;;;10.87;;
71814;SDS011;59659;41.520;23.794;2023-07-16T05:16:55;18.97;;;11.40;;
71814;SDS011;59659;41.520;23.794;2023-07-16T05:18:07;17.53;;;11.10;;
71814;SDS011;59659;41.520;23.794;2023-07-16T05:19:18;15.63;;;10.67;;
71814;SDS011;59659;41.520;23.794;2023-07-16T05:20:30;21.03;;;11.10;;
71814;SDS011;59659;41.520;23.794;2023-07-16T05:21:42;19.17;;;11.40;;
71814;SDS011;59659;41.520;23.794;2023-07-16T05:22:53;17.97;;;11.10;;
71814;SDS011;59659;41.520;23.794;2023-07-16T05:24:05;16.27;;;11.07;;
71814;SDS011;59659;41.520;23.794;2023-07-16T05:25:17;18.67;;;11.53;;
71814;SDS011;59659;41.520;23.794;2023-07-16T05:26:28;23.80;;;11.60;;
71814;SDS011;59659;41.520;23.794;2023-07-16T05:27:40;18.93;;;10.83;;
71814;SDS011;59659;41.520;23.794;2023-07-16T05:28:51;17.83;;;10.90;;
71814;SDS011;59659;41.520;23.794;2023-07-16T05:30:03;18.03;;;11.10;;
71814;SDS011;59659;41.520;23.794;2023-07-16T05:31:15;17.27;;;10.48;;
71814;SDS011;59659;41.520;23.794;2023-07-16T05:32:26;19.43;;;11.27;;
71814;SDS011;59659;41.520;23.794;2023-07-16T05:33:38;16.52;;;10.20;;
71814;SDS011;59659;41.520;23.794;2023-07-16T05:34:50;21.03;;;10.60;;
71814;SDS011;59659;41.520;23.794;2023-07-16T05:36:01;18.53;;;10.53;;
71814;SDS011;59659;41.520;23.794;2023-07-16T05:37:13;16.70;;;10.37;;
71814;SDS011;59659;41.520;23.794;2023-07-16T05:38:25;19.55;;;10.75;;
71814;SDS011;59659;41.520;23.794;2023-07-16T05:39:37;17.90;;;11.43;;
71814;SDS011;59659;41.520;23.794;2023-07-16T05:40:48;19.20;;;10.75;;
71814;SDS011;59659;41.520;23.794;2023-07-16T05:42:00;20.70;;;12.02;;
71814;SDS011;59659;41.520;23.794;2023-07-16T05:43:13;19.35;;;10.95;;
71814;SDS011;59659;41.520;23.794;2023-07-16T05:44:26;18.02;;;11.23;;
71814;SDS011;59659;41.520;23.794;2023-07-16T05:45:37;18.00;;;10.38;;
71814;SDS011;59659;41.520;23.794;2023-07-16T05:46:49;17.70;;;11.27;;
71814;SDS011;59659;41.520;23.794;2023-07-16T05:48:01;16.63;;;10.40;;
71814;SDS011;59659;41.520;23.794;2023-07-16T05:49:13;19.70;;;11.88;;
71814;SDS011;59659;41.520;23.794;2023-07-16T05:50:24;19.25;;;11.73;;
71814;SDS011;59659;41.520;23.794;2023-07-16T05:51:36;19.80;;;10.73;;
71814;SDS011;59659;41.520;23.794;2023-07-16T05:52:48;23.75;;;11.07;;
71814;SDS011;59659;41.520;23.794;2023-07-16T05:54:00;24.15;;;11.52;;
71814;SDS011;59659;41.520;23.794;2023-07-16T05:55:11;21.17;;;11.07;;
71814;SDS011;59659;41.520;23.794;2023-07-16T05:56:23;16.90;;;10.18;;
71814;SDS011;59659;41.520;23.794;2023-07-16T05:57:34;22.58;;;10.00;;
71814;SDS011;59659;41.520;23.794;2023-07-16T05:58:46;15.02;;;10.13;;
71814;SDS011;59659;41.520;23.794;2023-07-16T05:59:57;15.30;;;9.80;;
71814;SDS011;59659;41.520;23.794;2023-07-16T06:01:09;16.70;;;10.25;;
71814;SDS011;59659;41.520;23.794;2023-07-16T06:02:21;17.10;;;10.65;;
71814;SDS011;59659;41.520;23.794;2023-07-16T06:03:32;18.20;;;9.85;;
71814;SDS011;59659;41.520;23.794;2023-07-16T06:04:44;19.80;;;10.40;;
71814;SDS011;59659;41.520;23.794;2023-07-16T06:05:55;16.50;;;10.32;;
71814;SDS011;59659;41.520;23.794;2023-07-16T06:07:07;20.67;;;10.68;;
71814;SDS011;59659;41.520;23.794;2023-07-16T06:08:19;17.20;;;10.25;;
71814;SDS011;59659;41.520;23.794;2023-07-16T06:09:30;21.17;;;11.50;;
71814;SDS011;59659;41.520;23.794;2023-07-16T06:10:42;21.30;;;12.45;;
71814;SDS011;59659;41.520;23.794;2023-07-16T06:11:54;21.17;;;11.82;;
71814;SDS011;59659;41.520;23.794;2023-07-16T06:13:05;14.93;;;10.07;;
71814;SDS011;59659;41.520;23.794;2023-07-16T06:14:17;14.95;;;10.38;;
71814;SDS011;59659;41.520;23.794;2023-07-16T06:15:29;18.13;;;10.50;;
71814;SDS011;59659;41.520;23.794;2023-07-16T06:16:40;19.33;;;10.95;;
71814;SDS011;59659;41.520;23.794;2023-07-16T06:17:52;16.48;;;10.93;;
71814;SDS011;59659;41.520;23.794;2023-07-16T06:19:04;17.25;;;10.48;;
71814;SDS011;59659;41.520;23.794;2023-07-16T06:20:15;15.93;;;10.98;;
71814;SDS011;59659;41.520;23.794;2023-07-16T06:21:27;19.75;;;11.05;;
71814;SDS011;59659;41.520;23.794;2023-07-16T06:22:38;23.60;;;11.50;;
71814;SDS011;59659;41.520;23.794;2023-07-16T06:23:50;30.45;;;11.75;;
71814;SDS011;59659;41.520;23.794;2023-07-16T06:25:02;15.68;;;10.02;;
71814;SDS011;59659;41.520;23.794;2023-07-16T06:26:13;16.70;;;10.55;;
71814;SDS011;59659;41.520;23.794;2023-07-16T06:27:25;17.08;;;10.52;;
71814;SDS011;59659;41.520;23.794;2023-07-16T06:28:37;22.23;;;11.38;;
71814;SDS011;59659;41.520;23.794;2023-07-16T06:29:49;18.65;;;11.10;;
71814;SDS011;59659;41.520;23.794;2023-07-16T06:31:00;24.15;;;11.38;;
71814;SDS011;59659;41.520;23.794;2023-07-16T06:32:12;16.10;;;11.32;;
71814;SDS011;59659;41.520;23.794;2023-07-16T06:33:24;18.10;;;10.23;;
71814;SDS011;59659;41.520;23.794;2023-07-16T06:34:36;20.30;;;11.30;;
71814;SDS011;59659;41.520;23.794;2023-07-16T06:35:48;20.65;;;11.07;;
71814;SDS011;59659;41.520;23.794;2023-07-16T06:36:59;19.35;;;11.30;;
71814;SDS011;59659;41.520;23.794;2023-07-16T06:38:11;21.98;;;10.80;;
71814;SDS011;59659;41.520;23.794;2023-07-16T06:39:23;15.00;;;10.75;;
71814;SDS011;59659;41.520;23.794;2023-07-16T06:40:34;17.83;;;11.32;;
71814;SDS011;59659;41.520;23.794;2023-07-16T06:41:46;17.33;;;10.30;;
71814;SDS011;59659;41.520;23.794;2023-07-16T06:42:57;20.30;;;10.48;;
71814;SDS011;59659;41.520;23.794;2023-07-16T06:44:09;19.15;;;11.25;;
71814;SDS011;59659;41.520;23.794;2023-07-16T06:45:20;16.65;;;10.85;;
71814;SDS011;59659;41.520;23.794;2023-07-16T06:46:32;16.05;;;10.00;;
71814;SDS011;59659;41.520;23.794;2023-07-16T06:47:44;15.98;;;11.20;;
71814;SDS011;59659;41.520;23.794;2023-07-16T06:48:55;16.83;;;11.07;;
71814;SDS011;59659;41.520;23.794;2023-07-16T06:50:07;23.13;;;11.50;;
71814;SDS011;59659;41.520;23.794;2023-07-16T06:51:19;18.05;;;10.57;;
71814;SDS011;59659;41.520;23.794;2023-07-16T06:52:33;19.98;;;11.02;;
71814;SDS011;59659;41.520;23.794;2023-07-16T06:53:45;18.17;;;10.15;;
71814;SDS011;59659;41.520;23.794;2023-07-16T06:54:57;16.13;;;10.13;;
71814;SDS011;59659;41.520;23.794;2023-07-16T06:56:09;23.35;;;11.00;;
71814;SDS011;59659;41.520;23.794;2023-07-16T06:57:21;19.63;;;11.35;;
71814;SDS011;59659;41.520;23.794;2023-07-16T06:58:33;13.10;;;9.48;;
71814;SDS011;59659;41.520;23.794;2023-07-16T06:59:46;15.35;;;9.50;;
71814;SDS011;59659;41.520;23.794;2023-07-16T07:00:57;17.42;;;10.05;;
71814;SDS011;59659;41.520;23.794;2023-07-16T07:02:09;14.15;;;9.82;;
71814;SDS011;59659;41.520;23.794;2023-07-16T07:03:21;14.57;;;9.77;;
71814;SDS011;59659;41.520;23.794;2023-07-16T07:04:32;17.45;;;9.95;;
71814;SDS011;59659;41.520;23.794;2023-07-16T07:05:44;16.75;;;10.93;;
71814;SDS011;59659;41.520;23.794;2023-07-16T07:06:56;14.90;;;10.40;;
71814;SDS011;59659;41.520;23.794;2023-07-16T07:08:07;21.77;;;10.13;;
71814;SDS011;59659;41.520;23.794;2023-07-16T07:09:19;15.50;;;10.40;;
71814;SDS011;59659;41.520;23.794;2023-07-16T07:10:30;17.75;;;10.82;;
71814;SDS011;59659;41.520;23.794;2023-07-16T07:11:44;15.70;;;10.85;;
71814;SDS011;59659;41.520;23.794;2023-07-16T07:12:55;15.43;;;9.45;;
71814;SDS011;59659;41.520;23.794;2023-07-16T07:14:07;16.52;;;10.55;;
71814;SDS011;59659;41.520;23.794;2023-07-16T07:15:22;21.55;;;10.80;;
71814;SDS011;59659;41.520;23.794;2023-07-16T07:16:33;15.65;;;10.48;;
71814;SDS011;59659;41.520;23.794;2023-07-16T07:17:45;19.20;;;9.93;;
71814;SDS011;59659;41.520;23.794;2023-07-16T07:18:57;13.75;;;9.70;;
71814;SDS011;59659;41.520;23.794;2023-07-16T07:20:09;16.23;;;9.38;;
71814;SDS011;59659;41.520;23.794;2023-07-16T07:21:21;17.73;;;11.65;;
71814;SDS011;59659;41.520;23.794;2023-07-16T07:22:32;14.40;;;8.90;;
71814;SDS011;59659;41.520;23.794;2023-07-16T07:23:44;15.07;;;8.98;;
71814;SDS011;59659;41.520;23.794;2023-07-16T07:24:56;16.92;;;9.32;;
71814;SDS011;59659;41.520;23.794;2023-07-16T07:26:07;16.92;;;9.40;;
71814;SDS011;59659;41.520;23.794;2023-07-16T07:27:19;18.00;;;9.30;;
71814;SDS011;59659;41.520;23.794;2023-07-16T07:28:31;14.63;;;8.45;;
71814;SDS011;59659;41.520;23.794;2023-07-16T07:29:43;15.70;;;8.60;;
71814;SDS011;59659;41.520;23.794;2023-07-16T07:30:54;13.93;;;9.38;;
71814;SDS011;59659;41.520;23.794;2023-07-16T07:32:06;14.85;;;8.95;;
71814;SDS011;59659;41.520;23.794;2023-07-16T07:33:18;21.20;;;9.88;;
71814;SDS011;59659;41.520;23.794;2023-07-16T07:34:30;16.30;;;9.45;;
71814;SDS011;59659;41.520;23.794;2023-07-16T07:35:41;13.60;;;8.65;;
71814;SDS011;59659;41.520;23.794;2023-07-16T07:36:53;13.88;;;9.70;;
71814;SDS011;59659;41.520;23.794;2023-07-16T07:38:05;19.85;;;9.60;;
71814;SDS011;59659;41.520;23.794;2023-07-16T07:39:16;16.13;;;9.30;;
71814;SDS011;59659;41.520;23.794;2023-07-16T07:40:28;19.00;;;10.38;;
71814;SDS011;59659;41.520;23.794;2023-07-16T07:41:39;16.27;;;10.30;;
71814;SDS011;59659;41.520;23.794;2023-07-16T07:42:51;14.18;;;8.70;;
71814;SDS011;59659;41.520;23.794;2023-07-16T07:44:02;20.80;;;9.65;;
71814;SDS011;59659;41.520;23.794;2023-07-16T07:45:14;12.60;;;8.60;;
71814;SDS011;59659;41.520;23.794;2023-07-16T07:46:25;15.55;;;8.75;;
71814;SDS011;59659;41.520;23.794;2023-07-16T07:47:37;16.25;;;8.68;;
71814;SDS011;59659;41.520;23.794;2023-07-16T07:48:49;17.27;;;9.68;;
71814;SDS011;59659;41.520;23.794;2023-07-16T07:50:00;13.25;;;7.97;;
71814;SDS011;59659;41.520;23.794;2023-07-16T07:51:12;15.70;;;8.85;;
71814;SDS011;59659;41.520;23.794;2023-07-16T07:52:23;14.07;;;8.43;;
71814;SDS011;59659;41.520;23.794;2023-07-16T07:53:35;11.70;;;8.30;;
71814;SDS011;59659;41.520;23.794;2023-07-16T07:54:46;13.82;;;8.45;;
71814;SDS011;59659;41.520;23.794;2023-07-16T07:55:58;11.95;;;7.85;;
71814;SDS011;59659;41.520;23.794;2023-07-16T07:57:10;14.95;;;7.45;;
71814;SDS011;59659;41.520;23.794;2023-07-16T07:58:21;15.13;;;7.95;;
71814;SDS011;59659;41.520;23.794;2023-07-16T07:59:33;15.90;;;8.80;;
71814;SDS011;59659;41.520;23.794;2023-07-16T08:00:44;16.15;;;7.93;;
71814;SDS011;59659;41.520;23.794;2023-07-16T08:01:57;13.27;;;8.07;;
71814;SDS011;59659;41.520;23.794;2023-07-16T08:03:08;14.23;;;8.68;;
71814;SDS011;59659;41.520;23.794;2023-07-16T08:04:20;15.57;;;7.82;;
71814;SDS011;59659;41.520;23.794;2023-07-16T08:05:32;18.10;;;8.20;;
71814;SDS011;59659;41.520;23.794;2023-07-16T08:06:45;14.80;;;7.47;;
71814;SDS011;59659;41.520;23.794;2023-07-16T08:07:56;14.52;;;8.18;;
71814;SDS011;59659;41.520;23.794;2023-07-16T08:09:08;16.67;;;9.50;;
71814;SDS011;59659;41.520;23.794;2023-07-16T08:10:19;11.48;;;8.02;;
71814;SDS011;59659;41.520;23.794;2023-07-16T08:11:31;16.48;;;8.13;;